createdAt,value
2022-08-02T00:01:35.086Z,10.15
2022-08-02T00:04:05.859Z,9.82
2022-08-02T00:06:33.183Z,10.10
2022-08-02T00:09:00.006Z,10.30
2022-08-02T00:11:26.791Z,10.70
2022-08-02T00:13:53.548Z,10.95
2022-08-02T00:16:20.593Z,11.35
2022-08-02T00:19:04.945Z,10.80
2022-08-02T00:21:31.921Z,10.90
2022-08-02T00:24:27.923Z,11.93
2022-08-02T00:26:45.653Z,11.05
2022-08-02T00:29:12.449Z,12.00
2022-08-02T00:31:39.320Z,11.80
2022-08-02T00:34:29.207Z,12.77
2022-08-02T00:36:52.881Z,12.38
2022-08-02T00:39:33.609Z,12.75
2022-08-02T00:44:29.238Z,13.30
2022-08-02T00:46:56.148Z,13.30
2022-08-02T00:49:23.134Z,14.48
2022-08-02T00:51:51.298Z,14.88
2022-08-02T00:54:19.782Z,14.55
2022-08-02T00:56:50.852Z,15.00
2022-08-02T00:59:18.372Z,13.60
2022-08-02T01:01:57.195Z,13.40
2022-08-02T01:04:30.032Z,13.60
2022-08-02T01:06:57.826Z,14.20
2022-08-02T01:09:24.533Z,14.48
2022-08-02T01:11:51.347Z,14.45
2022-08-02T01:14:19.325Z,14.27
2022-08-02T01:16:52.706Z,14.85
2022-08-02T01:19:28.595Z,15.43
2022-08-02T01:22:18.418Z,13.25
2022-08-02T01:25:06.450Z,13.07
2022-08-02T01:27:43.231Z,12.60
2022-08-02T01:30:11.556Z,12.23
2022-08-02T01:32:44.875Z,12.50
2022-08-02T01:35:27.258Z,11.88
2022-08-02T01:37:59.010Z,13.00
2022-08-02T01:40:33.498Z,13.20
2022-08-02T01:43:01.187Z,13.15
2022-08-02T01:45:33.102Z,13.55
2022-08-02T01:48:01.634Z,11.65
2022-08-02T01:50:33.550Z,13.02
2022-08-02T01:53:05.704Z,12.00
2022-08-02T01:55:57.601Z,11.75
2022-08-02T02:00:57.613Z,11.55
2022-08-02T02:03:26.068Z,12.27
2022-08-02T02:05:56.938Z,12.68
2022-08-02T02:08:38.135Z,13.18
2022-08-02T02:12:06.462Z,12.65
2022-08-02T02:13:53.347Z,12.05
2022-08-02T02:16:22.511Z,13.02
2022-08-02T02:18:51.646Z,13.10
2022-08-02T02:21:18.982Z,12.35
2022-08-02T02:23:45.740Z,13.50
2022-08-02T02:26:16.847Z,12.77
2022-08-02T02:31:26.697Z,12.60
2022-08-02T02:34:01.243Z,12.65
2022-08-02T02:36:29.702Z,11.82
2022-08-02T02:39:00.858Z,12.40
2022-08-02T02:41:29.166Z,12.13
2022-08-02T02:43:58.441Z,12.15
2022-08-02T02:46:27.083Z,11.10
2022-08-02T02:48:55.120Z,11.90
2022-08-02T02:51:23.221Z,11.63
2022-08-02T02:54:30.196Z,11.55
2022-08-02T02:56:41.063Z,12.10
2022-08-02T02:59:09.191Z,11.68
2022-08-02T03:01:56.685Z,11.75
2022-08-02T03:04:25.097Z,11.65
2022-08-02T03:06:52.051Z,12.27
2022-08-02T03:09:18.985Z,11.85
2022-08-02T03:11:46.696Z,11.60
2022-08-02T03:14:13.882Z,11.80
2022-08-02T03:16:49.245Z,11.38
2022-08-02T03:19:16.625Z,10.93
2022-08-02T03:21:44.103Z,11.48
2022-08-02T03:24:11.490Z,10.30
2022-08-02T03:26:38.762Z,9.82
2022-08-02T03:29:09.784Z,9.75
2022-08-02T03:31:40.573Z,9.30
2022-08-02T03:34:07.828Z,9.40
2022-08-02T03:36:36.195Z,10.38
2022-08-02T03:39:04.399Z,9.38
2022-08-02T03:41:32.078Z,8.98
2022-08-02T03:43:59.913Z,8.90
2022-08-02T03:46:27.345Z,9.55
2022-08-02T03:48:55.997Z,8.82
2022-08-02T03:51:23.473Z,10.07
2022-08-02T03:53:50.736Z,8.43
2022-08-02T03:56:17.577Z,8.40
2022-08-02T03:58:49.018Z,8.30
2022-08-02T04:01:16.577Z,8.55
2022-08-02T04:03:43.597Z,8.23
2022-08-02T04:06:10.465Z,7.90
2022-08-02T04:08:38.755Z,7.95
2022-08-02T04:11:25.572Z,8.38
2022-08-02T04:13:54.131Z,7.82
2022-08-02T04:16:43.412Z,8.10
2022-08-02T04:19:15.490Z,8.30
2022-08-02T04:21:51.293Z,7.72
2022-08-02T04:24:32.391Z,7.28
2022-08-02T04:27:06.740Z,7.32
2022-08-02T04:29:49.026Z,7.25
2022-08-02T04:32:17.368Z,7.70
2022-08-02T04:35:11.348Z,7.88
2022-08-02T04:37:33.639Z,7.35
2022-08-02T04:40:01.073Z,7.53
2022-08-02T04:42:27.913Z,7.65
2022-08-02T04:44:54.788Z,8.25
2022-08-02T04:47:40.017Z,8.10
2022-08-02T04:50:09.545Z,7.47
2022-08-02T04:52:36.405Z,7.82
2022-08-02T04:55:03.617Z,9.10
2022-08-02T04:57:52.599Z,12.52
2022-08-02T05:00:20.543Z,18.33
2022-08-02T05:02:48.339Z,20.85
2022-08-02T05:05:15.771Z,19.23
2022-08-02T05:07:42.569Z,10.35
2022-08-02T05:10:09.727Z,9.75
2022-08-02T05:12:38.690Z,8.95
2022-08-02T05:15:06.114Z,9.05
2022-08-02T05:17:32.859Z,9.13
2022-08-02T05:19:59.739Z,10.27
2022-08-02T05:22:26.592Z,10.05
2022-08-02T05:24:53.607Z,8.57
2022-08-02T05:27:21.555Z,9.68
2022-08-02T05:29:53.943Z,10.32
2022-08-02T05:32:25.871Z,10.95
2022-08-02T05:34:53.404Z,9.77
2022-08-02T05:37:20.203Z,10.60
2022-08-02T05:39:55.850Z,10.63
2022-08-02T05:42:23.866Z,11.10
2022-08-02T05:44:50.833Z,10.98
2022-08-02T05:47:17.628Z,11.10
2022-08-02T05:49:44.363Z,10.68
2022-08-02T05:52:17.232Z,11.45
2022-08-02T05:55:02.209Z,11.25
2022-08-02T05:57:44.156Z,11.45
2022-08-02T06:00:16.194Z,11.27
2022-08-02T06:02:42.978Z,11.25
2022-08-02T06:05:13.649Z,11.35
2022-08-02T06:07:45.430Z,11.05
2022-08-02T06:10:14.370Z,10.90
2022-08-02T06:12:56.418Z,11.68
2022-08-02T06:15:23.284Z,11.98
2022-08-02T06:17:50.732Z,12.45
2022-08-02T06:20:18.467Z,12.25
2022-08-02T06:22:46.940Z,13.73
2022-08-02T06:25:49.862Z,13.23
2022-08-02T06:28:03.727Z,16.25
2022-08-02T06:30:39.069Z,18.67
2022-08-02T06:33:05.796Z,24.23
2022-08-02T06:35:45.053Z,26.58
2022-08-02T06:38:19.749Z,28.30
2022-08-02T06:40:55.818Z,33.20
2022-08-02T06:43:47.507Z,32.95
2022-08-02T06:46:57.043Z,31.65
2022-08-02T06:49:02.140Z,29.35
2022-08-02T06:51:29.970Z,29.60
2022-08-02T06:53:56.796Z,28.75
2022-08-02T06:56:23.646Z,32.72
2022-08-02T06:58:50.805Z,34.35
2022-08-02T07:01:20.099Z,39.63
2022-08-02T07:03:46.949Z,44.03
2022-08-02T07:06:13.906Z,48.22
2022-08-02T07:08:40.882Z,48.40
2022-08-02T07:11:09.466Z,49.65
2022-08-02T07:13:39.796Z,48.78
2022-08-02T07:16:07.485Z,50.25
2022-08-02T07:18:34.728Z,49.42
2022-08-02T07:21:05.377Z,49.90
2022-08-02T07:23:35.554Z,51.33
2022-08-02T07:26:05.357Z,47.63
2022-08-02T07:28:32.910Z,47.80
2022-08-02T07:30:59.683Z,48.47
2022-08-02T07:33:38.220Z,50.47
2022-08-02T07:36:08.839Z,46.65
2022-08-02T07:38:36.801Z,45.80
2022-08-02T07:41:04.682Z,45.58
2022-08-02T07:43:31.603Z,44.58
2022-08-02T07:46:01.072Z,44.83
2022-08-02T07:48:28.145Z,43.40
2022-08-02T07:50:54.955Z,43.20
2022-08-02T07:53:49.780Z,41.97
2022-08-02T07:56:09.542Z,40.78
2022-08-02T07:58:36.434Z,40.33
2022-08-02T08:01:04.680Z,38.28
2022-08-02T08:03:31.547Z,39.70
2022-08-02T08:05:58.478Z,39.60
2022-08-02T08:08:25.242Z,34.35
2022-08-02T08:10:52.012Z,33.90
2022-08-02T08:13:18.991Z,31.73
2022-08-02T08:15:51.572Z,32.55
2022-08-02T08:18:20.596Z,29.50
2022-08-02T08:20:47.511Z,29.50
2022-08-02T08:23:14.437Z,30.83
2022-08-02T08:25:41.515Z,28.95
2022-08-02T08:28:09.359Z,26.30
2022-08-02T08:30:36.600Z,26.10
2022-08-02T08:33:04.533Z,26.55
2022-08-02T08:35:31.387Z,26.20
2022-08-02T08:37:58.170Z,24.95
2022-08-02T08:40:26.133Z,24.38
2022-08-02T08:42:53.154Z,25.00
2022-08-02T08:45:19.906Z,25.23
2022-08-02T08:47:52.910Z,24.42
2022-08-02T08:50:25.147Z,22.65
2022-08-02T08:53:04.017Z,23.02
2022-08-02T08:55:32.532Z,21.13
2022-08-02T08:58:01.343Z,22.70
2022-08-02T09:00:30.466Z,22.55
2022-08-02T09:02:57.978Z,21.15
2022-08-02T09:05:25.544Z,22.10
2022-08-02T09:07:53.317Z,20.10
2022-08-02T09:10:32.280Z,19.67
2022-08-02T09:13:39.098Z,19.80
2022-08-02T09:16:12.811Z,19.65
2022-08-02T09:18:45.607Z,19.30
2022-08-02T09:21:13.769Z,18.77
2022-08-02T09:23:51.749Z,17.90
2022-08-02T09:26:19.815Z,18.13
2022-08-02T09:28:50.313Z,18.70
2022-08-02T09:31:24.570Z,18.17
2022-08-02T09:33:59.257Z,17.52
2022-08-02T09:36:28.288Z,19.05
2022-08-02T09:39:06.615Z,18.23
2022-08-02T09:41:41.291Z,19.08
2022-08-02T09:44:16.113Z,19.02
2022-08-02T09:46:45.072Z,18.02
2022-08-02T09:49:14.849Z,19.80
2022-08-02T09:51:50.488Z,19.05
2022-08-02T09:54:29.120Z,19.65
2022-08-02T09:56:58.461Z,19.15
2022-08-02T09:59:27.611Z,19.83
2022-08-02T10:02:01.758Z,20.08
2022-08-02T10:04:32.095Z,19.67
2022-08-02T10:07:04.597Z,19.90
2022-08-02T10:09:32.261Z,20.90
2022-08-02T10:12:00.036Z,19.77
2022-08-02T10:14:27.915Z,20.65
2022-08-02T10:16:57.385Z,21.70
2022-08-02T10:20:00.870Z,20.67
2022-08-02T10:22:14.163Z,21.88
2022-08-02T10:24:47.498Z,21.75
2022-08-02T10:27:20.575Z,20.73
2022-08-02T10:29:53.630Z,21.65
2022-08-02T10:32:37.802Z,20.75
2022-08-02T10:35:18.723Z,22.02
2022-08-02T10:37:58.113Z,22.42
2022-08-02T10:40:26.905Z,17.48
2022-08-02T10:43:00.865Z,18.85
2022-08-02T10:45:29.283Z,18.35
2022-08-02T10:48:00.563Z,19.70
2022-08-02T10:50:46.735Z,21.33
2022-08-02T10:53:30.452Z,20.63
2022-08-02T10:56:06.048Z,20.77
2022-08-02T10:58:36.273Z,20.75
2022-08-02T11:01:39.605Z,20.25
2022-08-02T11:04:10.646Z,19.92
2022-08-02T11:07:10.860Z,18.77
2022-08-02T11:09:38.299Z,17.58
2022-08-02T11:12:19.669Z,19.25
2022-08-02T11:15:01.229Z,18.65
2022-08-02T11:17:38.245Z,17.88
2022-08-02T11:20:11.017Z,17.38
2022-08-02T11:22:39.159Z,18.25
2022-08-02T11:25:24.377Z,16.55
2022-08-02T11:27:51.803Z,17.63
2022-08-02T11:30:26.499Z,16.48
2022-08-02T11:33:00.816Z,16.63
2022-08-02T11:35:36.115Z,17.67
2022-08-02T11:38:16.444Z,16.30
2022-08-02T11:40:45.230Z,17.23
2022-08-02T11:43:23.493Z,18.95
2022-08-02T11:45:52.566Z,18.35
2022-08-02T11:48:33.675Z,18.30
2022-08-02T11:51:04.823Z,17.70
2022-08-02T11:53:41.577Z,17.80
2022-08-02T11:56:08.602Z,18.05
2022-08-02T11:58:35.406Z,18.48
2022-08-02T12:01:02.576Z,18.50
2022-08-02T12:03:37.744Z,17.58
2022-08-02T12:06:10.848Z,18.35
2022-08-02T12:08:43.744Z,17.35
2022-08-02T12:11:21.599Z,18.88
2022-08-02T12:13:56.781Z,18.25
2022-08-02T12:16:43.737Z,18.83
2022-08-02T12:19:19.550Z,17.92
2022-08-02T12:21:47.118Z,17.73
2022-08-02T12:24:26.890Z,16.35
2022-08-02T12:26:53.673Z,13.63
2022-08-02T12:29:57.904Z,12.52
2022-08-02T12:32:24.967Z,11.55
2022-08-02T12:35:02.926Z,10.77
2022-08-02T12:37:29.762Z,9.13
2022-08-02T12:39:56.516Z,7.72
2022-08-02T12:42:23.421Z,7.10
2022-08-02T12:45:00.468Z,6.70
2022-08-02T12:47:35.879Z,6.10
2022-08-02T12:50:21.458Z,6.50
2022-08-02T12:52:49.792Z,6.18
2022-08-02T12:55:16.733Z,6.45
2022-08-02T12:58:02.962Z,6.15
2022-08-02T13:00:35.734Z,6.20
2022-08-02T13:03:03.867Z,6.07
2022-08-02T13:05:53.659Z,6.25
2022-08-02T13:08:22.601Z,6.60
2022-08-02T13:10:49.601Z,5.78
2022-08-02T13:13:16.472Z,6.47
2022-08-02T13:15:48.990Z,4.90
2022-08-02T13:18:18.474Z,3.50
2022-08-02T13:20:45.632Z,3.05
2022-08-02T13:23:21.011Z,2.97
2022-08-02T13:25:48.342Z,2.85
2022-08-02T13:28:19.886Z,2.30
2022-08-02T13:30:47.236Z,2.90
2022-08-02T13:33:14.613Z,3.15
2022-08-02T13:35:42.456Z,2.60
2022-08-02T13:38:09.277Z,2.97
2022-08-02T13:41:04.392Z,2.60
2022-08-02T13:43:52.818Z,2.90
2022-08-02T13:46:28.968Z,2.90
2022-08-02T13:48:57.156Z,2.55
2022-08-02T13:51:24.023Z,2.88
2022-08-02T13:53:50.837Z,3.10
2022-08-02T13:56:17.821Z,2.92
2022-08-02T13:58:44.694Z,2.53
2022-08-02T14:01:11.684Z,3.35
2022-08-02T14:04:07.329Z,2.65
2022-08-02T14:06:25.716Z,3.75
2022-08-02T14:08:53.080Z,4.72
2022-08-02T14:11:19.974Z,5.70
2022-08-02T14:13:46.746Z,5.35
2022-08-02T14:16:13.611Z,6.28
2022-08-02T14:18:40.469Z,6.95
2022-08-02T14:21:07.249Z,7.07
2022-08-02T14:23:50.358Z,6.93
2022-08-02T14:26:26.937Z,7.75
2022-08-02T14:28:55.566Z,7.85
2022-08-02T14:31:22.513Z,7.32
2022-08-02T14:33:49.381Z,7.20
2022-08-02T14:36:16.182Z,7.65
2022-08-02T14:38:55.252Z,8.15
2022-08-02T14:41:22.745Z,8.32
2022-08-02T14:44:04.954Z,8.68
2022-08-02T14:46:32.931Z,8.23
2022-08-02T14:49:03.703Z,8.75
2022-08-02T14:51:34.741Z,8.95
2022-08-02T14:54:03.603Z,8.43
2022-08-02T14:56:31.849Z,7.97
2022-08-02T14:58:59.009Z,8.77
2022-08-02T15:01:26.474Z,8.40
2022-08-02T15:03:58.912Z,8.88
2022-08-02T15:06:32.111Z,8.40
2022-08-02T15:09:00.003Z,8.45
2022-08-02T15:11:26.993Z,9.80
2022-08-02T15:13:53.826Z,8.82
2022-08-02T15:16:28.940Z,8.95
2022-08-02T15:19:06.488Z,8.68
2022-08-02T15:21:52.485Z,8.70
2022-08-02T15:24:20.495Z,7.50
2022-08-02T15:26:48.407Z,8.95
2022-08-02T15:29:15.212Z,8.85
2022-08-02T15:31:42.069Z,8.48
2022-08-02T15:34:09.670Z,7.65
2022-08-02T15:36:36.475Z,8.35
2022-08-02T15:39:03.665Z,8.00
2022-08-02T15:41:30.507Z,8.15
2022-08-02T15:44:00.630Z,7.97
2022-08-02T15:46:30.831Z,7.03
2022-08-02T15:48:59.774Z,7.05
2022-08-02T15:51:27.255Z,7.15
2022-08-02T15:53:54.105Z,7.45
2022-08-02T15:56:24.000Z,6.95
2022-08-02T15:58:56.059Z,6.22
2022-08-02T16:01:32.181Z,7.35
2022-08-02T16:04:07.209Z,6.50
2022-08-02T16:06:37.367Z,6.90
2022-08-02T16:09:04.381Z,6.20
2022-08-02T16:11:31.246Z,6.18
2022-08-02T16:13:59.112Z,6.05
2022-08-02T16:16:29.301Z,6.05
2022-08-02T16:18:57.280Z,6.07
2022-08-02T16:21:24.853Z,5.82
2022-08-02T16:23:59.592Z,5.85
2022-08-02T16:26:31.512Z,5.90
2022-08-02T16:28:59.421Z,5.75
2022-08-02T16:31:26.375Z,6.32
2022-08-02T16:33:56.171Z,6.05
2022-08-02T16:36:25.869Z,6.00
2022-08-02T16:38:54.379Z,6.78
2022-08-02T16:41:22.131Z,6.30
2022-08-02T16:43:49.411Z,6.90
2022-08-02T16:46:16.494Z,7.18
2022-08-02T16:48:51.185Z,7.35
2022-08-02T16:51:19.247Z,7.63
2022-08-02T16:54:00.213Z,7.72
2022-08-02T16:56:30.966Z,9.85
2022-08-02T16:58:59.752Z,7.22
2022-08-02T17:02:10.839Z,7.93
2022-08-02T17:04:16.006Z,7.85
2022-08-02T17:06:51.664Z,6.85
2022-08-02T17:10:01.842Z,7.15
2022-08-02T17:12:09.081Z,7.70
2022-08-02T17:14:54.593Z,7.85
2022-08-02T17:17:22.562Z,7.32
2022-08-02T17:20:01.885Z,8.38
2022-08-02T17:22:29.007Z,7.65
2022-08-02T17:24:56.222Z,8.50
2022-08-02T17:27:23.058Z,8.15
2022-08-02T17:29:49.902Z,9.00
2022-08-02T17:32:18.637Z,8.88
2022-08-02T17:34:48.818Z,9.10
2022-08-02T17:37:23.617Z,9.57
2022-08-02T17:39:51.879Z,9.80
2022-08-02T17:42:23.156Z,9.00
2022-08-02T17:44:52.063Z,10.38
2022-08-02T17:47:19.468Z,9.73
2022-08-02T17:49:48.396Z,10.38
2022-08-02T17:52:51.473Z,10.00
2022-08-02T17:55:04.844Z,9.10
2022-08-02T17:57:57.045Z,9.55
2022-08-02T18:00:18.914Z,10.05
2022-08-02T18:05:39.040Z,9.80
2022-08-02T18:08:08.803Z,9.90
2022-08-02T18:10:35.651Z,10.30
2022-08-02T18:13:03.820Z,10.75
2022-08-02T18:15:32.561Z,10.57
2022-08-02T18:18:00.656Z,9.75
2022-08-02T18:20:27.431Z,10.65
2022-08-02T18:22:58.500Z,9.52
2022-08-02T18:25:36.297Z,10.23
2022-08-02T18:28:05.295Z,10.48
2022-08-02T18:30:34.061Z,10.60
2022-08-02T18:33:57.333Z,9.77
2022-08-02T18:35:48.315Z,9.90
2022-08-02T18:38:15.606Z,10.43
2022-08-02T18:40:42.937Z,11.38
2022-08-02T18:43:17.647Z,10.20
2022-08-02T18:46:05.559Z,11.05
2022-08-02T18:48:31.651Z,10.10
2022-08-02T18:50:58.488Z,11.57
2022-08-02T18:53:39.163Z,10.93
2022-08-02T18:56:20.130Z,11.25
2022-08-02T18:58:52.923Z,11.10
2022-08-02T19:01:21.786Z,11.43
2022-08-02T19:03:58.783Z,11.23
2022-08-02T19:06:28.865Z,11.68
2022-08-02T19:09:05.701Z,11.35
2022-08-02T19:14:27.810Z,10.90
2022-08-02T19:16:59.581Z,12.25
2022-08-02T19:19:28.856Z,13.40
2022-08-02T19:22:17.711Z,12.73
2022-08-02T19:24:46.182Z,12.82
2022-08-02T19:27:20.701Z,13.63
2022-08-02T19:29:53.535Z,14.27
2022-08-02T19:32:41.830Z,14.63
2022-08-02T19:35:19.686Z,14.75
2022-08-02T19:38:05.278Z,15.18
2022-08-02T19:40:32.224Z,16.10
2022-08-02T19:44:24.504Z,16.15
2022-08-02T19:45:50.644Z,16.75
2022-08-02T19:48:24.255Z,16.80
2022-08-02T19:50:56.773Z,17.83
2022-08-02T19:53:28.925Z,16.92
2022-08-02T19:56:13.451Z,17.08
2022-08-02T19:58:51.234Z,17.42
2022-08-02T20:01:21.907Z,16.95
2022-08-02T20:03:53.053Z,15.73
2022-08-02T20:06:28.542Z,17.83
2022-08-02T20:08:59.317Z,16.77
2022-08-02T20:11:29.208Z,16.60
2022-08-02T20:14:03.405Z,17.50
2022-08-02T20:16:33.049Z,16.60
2022-08-02T20:19:01.249Z,16.98
2022-08-02T20:21:35.666Z,16.80
2022-08-02T20:24:07.250Z,16.23
2022-08-02T20:26:35.196Z,15.82
2022-08-02T20:29:04.387Z,15.25
2022-08-02T20:31:31.369Z,15.60
2022-08-02T20:33:58.170Z,14.80
2022-08-02T20:36:26.699Z,15.55
2022-08-02T20:38:54.529Z,13.75
2022-08-02T20:41:22.932Z,14.25
2022-08-02T20:43:50.333Z,14.18
2022-08-02T20:46:17.466Z,13.23
2022-08-02T20:48:45.079Z,13.60
2022-08-02T20:51:13.977Z,14.15
2022-08-02T20:53:54.734Z,13.57
2022-08-02T20:56:22.016Z,13.55
2022-08-02T20:58:52.358Z,13.20
2022-08-02T21:01:21.177Z,13.07
2022-08-02T21:03:58.728Z,13.00
2022-08-02T21:06:29.817Z,12.45
2022-08-02T21:08:57.202Z,12.75
2022-08-02T21:11:33.709Z,12.85
2022-08-02T21:14:06.327Z,12.35
2022-08-02T21:16:35.030Z,11.80
2022-08-02T21:19:02.142Z,12.27
2022-08-02T21:21:29.745Z,11.75
2022-08-02T21:23:57.383Z,12.18
2022-08-02T21:26:28.390Z,11.15
2022-08-02T21:28:58.183Z,11.60
2022-08-02T21:31:30.057Z,11.70
2022-08-02T21:34:00.508Z,11.50
2022-08-02T21:36:33.263Z,11.07
2022-08-02T21:39:04.924Z,10.75
2022-08-02T21:41:38.862Z,10.40
2022-08-02T21:44:17.130Z,10.50
2022-08-02T21:46:45.603Z,10.90
2022-08-02T21:49:14.269Z,10.02
2022-08-02T21:51:42.979Z,9.85
2022-08-02T21:54:18.847Z,10.10
2022-08-02T21:56:48.201Z,9.98
2022-08-02T21:59:16.482Z,10.35
2022-08-02T22:01:52.659Z,9.40
2022-08-02T22:04:21.553Z,8.88
2022-08-02T22:06:49.319Z,8.60
2022-08-02T22:14:55.118Z,8.10
2022-08-02T22:17:50.570Z,8.80
2022-08-02T22:20:14.148Z,8.85
2022-08-02T22:22:42.375Z,8.65
2022-08-02T22:25:10.224Z,9.15
2022-08-02T22:28:34.773Z,8.70
2022-08-02T22:30:41.633Z,8.80
2022-08-02T22:33:33.111Z,9.40
2022-08-02T22:36:01.179Z,9.50
2022-08-02T22:38:28.660Z,9.90
2022-08-02T22:40:55.601Z,10.77
2022-08-02T22:43:23.091Z,9.80
2022-08-02T22:45:50.874Z,9.23
2022-08-02T22:48:18.040Z,9.55
2022-08-02T22:50:44.816Z,9.95
2022-08-02T22:53:12.291Z,10.60
2022-08-02T22:55:41.834Z,10.65
2022-08-02T22:58:09.589Z,11.32
2022-08-02T22:58:42.979Z,10.07
2022-08-02T22:58:57.183Z,11.88
2022-08-02T22:59:10.806Z,8.80
2022-08-02T22:59:12.191Z,9.00
2022-08-02T23:00:36.441Z,9.68
2022-08-02T23:03:06.858Z,10.77
2022-08-02T23:05:34.389Z,11.55
2022-08-02T23:08:01.493Z,10.48
2022-08-02T23:10:28.399Z,10.52
2022-08-02T23:12:59.001Z,11.07
2022-08-02T23:15:48.566Z,11.32
2022-08-02T23:18:33.922Z,11.40
2022-08-02T23:21:00.733Z,9.95
2022-08-02T23:23:27.497Z,11.57
2022-08-02T23:25:54.288Z,10.82
2022-08-02T23:28:21.039Z,10.93
2022-08-02T23:30:47.858Z,10.68
2022-08-02T23:33:14.864Z,10.55
2022-08-02T23:35:41.681Z,10.35
2022-08-02T23:38:08.608Z,10.82
2022-08-02T23:40:40.453Z,10.18
2022-08-02T23:43:13.995Z,10.40
2022-08-02T23:45:48.570Z,10.45
2022-08-02T23:48:15.487Z,10.40
2022-08-02T23:50:42.213Z,10.60
2022-08-02T23:53:09.042Z,9.50
2022-08-02T23:55:35.824Z,10.40
2022-08-02T23:58:02.577Z,10.63
